Aviation Digital Data Service (ADDS)

Output produced by METARs form (1133 UTC 21 April 2018)
found at http://aviationweather.gov/adds/metars/
 
KGFL 211126Z 2112/2212 VRB03KT P6SM SKC 
     FM211500 34009KT P6SM SCT250 
     FM220000 VRB03KT P6SM SKC 
     FM220300 00000KT P6SM SKC